sensor_id;sensor_type;location;lat;lon;timestamp;pressure;altitude;pressure_sealevel;temperature;humidity
57885;BME280;43703;51.060;-0.086;2023-01-26T00:01:24;101263.37;;;4.57;72.39
57885;BME280;43703;51.060;-0.086;2023-01-26T00:03:47;101260.96;;;4.23;71.12
57885;BME280;43703;51.060;-0.086;2023-01-26T00:06:19;101252.51;;;4.89;70.33
57885;BME280;43703;51.060;-0.086;2023-01-26T00:08:38;101253.24;;;5.11;69.64
57885;BME280;43703;51.060;-0.086;2023-01-26T00:11:04;101250.33;;;4.94;69.49
57885;BME280;43703;51.060;-0.086;2023-01-26T00:13:28;101252.94;;;5.27;67.69
57885;BME280;43703;51.060;-0.086;2023-01-26T00:15:54;101246.48;;;4.95;69.02
57885;BME280;43703;51.060;-0.086;2023-01-26T00:18:19;101248.43;;;4.63;69.16
57885;BME280;43703;51.060;-0.086;2023-01-26T00:20:45;101244.50;;;4.27;69.71
57885;BME280;43703;51.060;-0.086;2023-01-26T00:23:11;101244.95;;;3.29;71.70
57885;BME280;43703;51.060;-0.086;2023-01-26T00:25:37;101241.80;;;4.91;68.35
57885;BME280;43703;51.060;-0.086;2023-01-26T00:28:01;101243.93;;;4.03;69.42
57885;BME280;43703;51.060;-0.086;2023-01-26T00:30:25;101247.25;;;4.56;67.74
57885;BME280;43703;51.060;-0.086;2023-01-26T00:32:51;101247.35;;;4.11;68.29
57885;BME280;43703;51.060;-0.086;2023-01-26T00:35:17;101250.25;;;3.95;69.50
57885;BME280;43703;51.060;-0.086;2023-01-26T00:37:42;101244.38;;;3.87;69.43
57885;BME280;43703;51.060;-0.086;2023-01-26T00:40:09;101244.68;;;3.13;71.83
57885;BME280;43703;51.060;-0.086;2023-01-26T00:42:33;101243.65;;;3.54;70.31
57885;BME280;43703;51.060;-0.086;2023-01-26T00:44:58;101241.38;;;3.43;69.92
57885;BME280;43703;51.060;-0.086;2023-01-26T00:47:24;101243.74;;;3.63;69.46
57885;BME280;43703;51.060;-0.086;2023-01-26T00:49:48;101242.09;;;3.19;70.07
57885;BME280;43703;51.060;-0.086;2023-01-26T00:52:13;101241.77;;;2.98;69.60
57885;BME280;43703;51.060;-0.086;2023-01-26T00:54:39;101243.27;;;3.22;69.59
57885;BME280;43703;51.060;-0.086;2023-01-26T00:57:04;101246.68;;;3.66;68.58
57885;BME280;43703;51.060;-0.086;2023-01-26T00:59:30;101247.63;;;3.46;68.95
57885;BME280;43703;51.060;-0.086;2023-01-26T01:01:55;101243.65;;;3.61;69.46
57885;BME280;43703;51.060;-0.086;2023-01-26T01:04:20;101252.24;;;2.74;69.97
57885;BME280;43703;51.060;-0.086;2023-01-26T01:06:45;101251.81;;;3.03;69.87
57885;BME280;43703;51.060;-0.086;2023-01-26T01:09:10;101245.72;;;3.21;69.07
57885;BME280;43703;51.060;-0.086;2023-01-26T01:11:35;101246.17;;;3.55;69.38
57885;BME280;43703;51.060;-0.086;2023-01-26T01:14:00;101252.33;;;2.93;70.92
57885;BME280;43703;51.060;-0.086;2023-01-26T01:16:25;101247.14;;;3.50;69.67
57885;BME280;43703;51.060;-0.086;2023-01-26T01:18:53;101247.99;;;2.95;70.46
57885;BME280;43703;51.060;-0.086;2023-01-26T01:21:17;101242.67;;;3.32;69.56
57885;BME280;43703;51.060;-0.086;2023-01-26T01:23:41;101248.00;;;3.36;68.38
57885;BME280;43703;51.060;-0.086;2023-01-26T01:26:08;101248.61;;;3.47;67.34
57885;BME280;43703;51.060;-0.086;2023-01-26T01:28:33;101248.40;;;2.59;69.73
57885;BME280;43703;51.060;-0.086;2023-01-26T01:30:57;101248.83;;;2.86;69.41
57885;BME280;43703;51.060;-0.086;2023-01-26T01:33:23;101249.04;;;3.05;70.22
57885;BME280;43703;51.060;-0.086;2023-01-26T01:35:57;101246.39;;;2.91;69.19
57885;BME280;43703;51.060;-0.086;2023-01-26T01:38:13;101250.13;;;2.93;69.34
57885;BME280;43703;51.060;-0.086;2023-01-26T01:40:43;101252.98;;;2.72;69.96
57885;BME280;43703;51.060;-0.086;2023-01-26T01:43:09;101259.12;;;2.80;70.31
57885;BME280;43703;51.060;-0.086;2023-01-26T01:47:55;101258.64;;;2.83;70.45
57885;BME280;43703;51.060;-0.086;2023-01-26T01:50:19;101259.92;;;3.05;70.91
57885;BME280;43703;51.060;-0.086;2023-01-26T01:52:44;101256.68;;;2.50;71.34
57885;BME280;43703;51.060;-0.086;2023-01-26T01:55:12;101254.53;;;3.12;70.00
57885;BME280;43703;51.060;-0.086;2023-01-26T01:57:38;101258.65;;;2.90;71.40
57885;BME280;43703;51.060;-0.086;2023-01-26T02:00:04;101261.09;;;2.60;70.05
57885;BME280;43703;51.060;-0.086;2023-01-26T02:02:26;101261.09;;;2.95;69.50
57885;BME280;43703;51.060;-0.086;2023-01-26T02:04:51;101253.40;;;2.83;69.29
57885;BME280;43703;51.060;-0.086;2023-01-26T02:07:15;101254.83;;;2.87;70.22
57885;BME280;43703;51.060;-0.086;2023-01-26T02:09:42;101254.52;;;2.69;69.60
57885;BME280;43703;51.060;-0.086;2023-01-26T02:12:09;101261.14;;;2.62;70.72
57885;BME280;43703;51.060;-0.086;2023-01-26T02:14:32;101265.56;;;3.09;69.65
57885;BME280;43703;51.060;-0.086;2023-01-26T02:16:56;101269.56;;;2.74;71.29
57885;BME280;43703;51.060;-0.086;2023-01-26T02:19:31;101268.71;;;2.26;72.41
57885;BME280;43703;51.060;-0.086;2023-01-26T02:21:48;101270.02;;;3.14;71.32
57885;BME280;43703;51.060;-0.086;2023-01-26T02:24:19;101268.43;;;3.57;70.73
57885;BME280;43703;51.060;-0.086;2023-01-26T02:26:39;101268.22;;;3.47;70.60
57885;BME280;43703;51.060;-0.086;2023-01-26T02:29:07;101268.58;;;3.02;70.18
57885;BME280;43703;51.060;-0.086;2023-01-26T02:31:31;101268.92;;;3.21;69.69
57885;BME280;43703;51.060;-0.086;2023-01-26T02:33:55;101272.42;;;2.86;70.68
57885;BME280;43703;51.060;-0.086;2023-01-26T02:36:23;101273.93;;;2.93;71.39
57885;BME280;43703;51.060;-0.086;2023-01-26T02:38:54;101277.66;;;3.09;71.37
57885;BME280;43703;51.060;-0.086;2023-01-26T02:41:12;101278.25;;;2.88;71.13
57885;BME280;43703;51.060;-0.086;2023-01-26T02:43:36;101278.71;;;2.66;72.48
57885;BME280;43703;51.060;-0.086;2023-01-26T02:46:00;101270.63;;;3.19;71.53
57885;BME280;43703;51.060;-0.086;2023-01-26T02:48:33;101271.53;;;2.87;71.12
57885;BME280;43703;51.060;-0.086;2023-01-26T02:50:52;101285.96;;;3.08;71.44
57885;BME280;43703;51.060;-0.086;2023-01-26T02:53:16;101277.15;;;3.47;69.48
57885;BME280;43703;51.060;-0.086;2023-01-26T02:55:42;101280.01;;;3.02;71.17
57885;BME280;43703;51.060;-0.086;2023-01-26T02:58:08;101280.00;;;3.99;68.97
57885;BME280;43703;51.060;-0.086;2023-01-26T03:00:34;101289.71;;;3.54;69.52
57885;BME280;43703;51.060;-0.086;2023-01-26T03:03:00;101292.46;;;3.22;69.61
57885;BME280;43703;51.060;-0.086;2023-01-26T03:05:23;101296.70;;;2.97;71.15
57885;BME280;43703;51.060;-0.086;2023-01-26T03:07:49;101294.02;;;3.78;69.67
57885;BME280;43703;51.060;-0.086;2023-01-26T03:10:14;101288.98;;;3.13;70.79
57885;BME280;43703;51.060;-0.086;2023-01-26T03:12:39;101286.69;;;3.93;70.15
57885;BME280;43703;51.060;-0.086;2023-01-26T03:15:06;101291.01;;;4.03;68.09
57885;BME280;43703;51.060;-0.086;2023-01-26T03:17:30;101290.38;;;3.58;68.49
57885;BME280;43703;51.060;-0.086;2023-01-26T03:19:55;101291.88;;;3.37;68.45
57885;BME280;43703;51.060;-0.086;2023-01-26T03:22:21;101286.88;;;3.01;69.43
57885;BME280;43703;51.060;-0.086;2023-01-26T03:24:46;101291.20;;;3.98;68.05
57885;BME280;43703;51.060;-0.086;2023-01-26T03:27:10;101286.98;;;3.14;69.14
57885;BME280;43703;51.060;-0.086;2023-01-26T03:29:37;101285.58;;;2.93;70.11
57885;BME280;43703;51.060;-0.086;2023-01-26T03:32:01;101283.03;;;3.13;69.54
57885;BME280;43703;51.060;-0.086;2023-01-26T03:34:32;101285.00;;;2.60;69.32
57885;BME280;43703;51.060;-0.086;2023-01-26T03:36:53;101281.59;;;2.86;69.49
57885;BME280;43703;51.060;-0.086;2023-01-26T03:39:19;101287.00;;;2.43;70.41
57885;BME280;43703;51.060;-0.086;2023-01-26T03:41:43;101293.53;;;2.34;69.48
57885;BME280;43703;51.060;-0.086;2023-01-26T03:44:09;101291.30;;;2.92;68.28
57885;BME280;43703;51.060;-0.086;2023-01-26T03:46:34;101294.51;;;2.73;68.86
57885;BME280;43703;51.060;-0.086;2023-01-26T03:48:59;101302.06;;;2.96;69.50
57885;BME280;43703;51.060;-0.086;2023-01-26T03:51:24;101293.91;;;3.04;67.62
57885;BME280;43703;51.060;-0.086;2023-01-26T03:53:50;101304.96;;;2.26;69.03
57885;BME280;43703;51.060;-0.086;2023-01-26T03:56:16;101305.77;;;3.24;67.44
57885;BME280;43703;51.060;-0.086;2023-01-26T03:58:41;101308.23;;;2.14;69.78
57885;BME280;43703;51.060;-0.086;2023-01-26T04:01:06;101300.38;;;2.53;69.94
57885;BME280;43703;51.060;-0.086;2023-01-26T04:03:31;101300.67;;;3.25;68.11
57885;BME280;43703;51.060;-0.086;2023-01-26T04:06:03;101296.99;;;2.95;68.74
57885;BME280;43703;51.060;-0.086;2023-01-26T04:08:22;101307.78;;;2.98;69.10
57885;BME280;43703;51.060;-0.086;2023-01-26T04:10:48;101305.65;;;2.54;69.54
57885;BME280;43703;51.060;-0.086;2023-01-26T04:13:13;101304.08;;;2.91;67.85
57885;BME280;43703;51.060;-0.086;2023-01-26T04:15:38;101308.09;;;3.37;68.38
57885;BME280;43703;51.060;-0.086;2023-01-26T04:18:05;101305.66;;;3.46;67.99
57885;BME280;43703;51.060;-0.086;2023-01-26T04:20:29;101318.85;;;2.38;68.70
57885;BME280;43703;51.060;-0.086;2023-01-26T04:22:55;101319.18;;;2.23;69.67
57885;BME280;43703;51.060;-0.086;2023-01-26T04:25:21;101318.80;;;3.28;68.96
57885;BME280;43703;51.060;-0.086;2023-01-26T04:27:45;101321.85;;;2.84;68.02
57885;BME280;43703;51.060;-0.086;2023-01-26T04:30:18;101333.35;;;2.29;68.72
57885;BME280;43703;51.060;-0.086;2023-01-26T04:32:36;101329.63;;;2.47;69.38
57885;BME280;43703;51.060;-0.086;2023-01-26T04:35:03;101326.23;;;2.86;68.26
57885;BME280;43703;51.060;-0.086;2023-01-26T04:37:27;101327.80;;;2.75;68.94
57885;BME280;43703;51.060;-0.086;2023-01-26T04:39:54;101326.94;;;3.44;66.51
57885;BME280;43703;51.060;-0.086;2023-01-26T04:42:19;101330.04;;;2.73;68.86
57885;BME280;43703;51.060;-0.086;2023-01-26T04:44:44;101331.00;;;2.37;68.44
57885;BME280;43703;51.060;-0.086;2023-01-26T04:47:10;101334.93;;;3.14;68.75
57885;BME280;43703;51.060;-0.086;2023-01-26T04:49:35;101326.47;;;2.69;68.72
57885;BME280;43703;51.060;-0.086;2023-01-26T04:52:00;101342.37;;;2.67;67.82
57885;BME280;43703;51.060;-0.086;2023-01-26T04:54:25;101336.29;;;2.70;68.07
57885;BME280;43703;51.060;-0.086;2023-01-26T04:56:51;101336.81;;;2.70;68.18
57885;BME280;43703;51.060;-0.086;2023-01-26T04:59:16;101339.06;;;1.84;68.57
57885;BME280;43703;51.060;-0.086;2023-01-26T05:01:41;101337.06;;;2.23;67.98
57885;BME280;43703;51.060;-0.086;2023-01-26T05:04:07;101343.67;;;2.36;67.07
57885;BME280;43703;51.060;-0.086;2023-01-26T05:06:32;101333.36;;;2.18;67.55
57885;BME280;43703;51.060;-0.086;2023-01-26T05:08:58;101340.43;;;2.39;67.30
57885;BME280;43703;51.060;-0.086;2023-01-26T05:11:23;101332.89;;;2.38;66.86
57885;BME280;43703;51.060;-0.086;2023-01-26T05:13:48;101340.03;;;2.18;66.83
57885;BME280;43703;51.060;-0.086;2023-01-26T05:16:15;101342.41;;;1.75;67.98
57885;BME280;43703;51.060;-0.086;2023-01-26T05:18:39;101335.35;;;2.28;66.95
57885;BME280;43703;51.060;-0.086;2023-01-26T05:21:06;101336.11;;;1.52;67.17
57885;BME280;43703;51.060;-0.086;2023-01-26T05:23:29;101325.65;;;2.04;67.48
57885;BME280;43703;51.060;-0.086;2023-01-26T05:25:55;101343.42;;;2.10;67.07
57885;BME280;43703;51.060;-0.086;2023-01-26T05:28:20;101341.61;;;2.09;67.04
57885;BME280;43703;51.060;-0.086;2023-01-26T05:30:46;101329.81;;;1.45;68.16
57885;BME280;43703;51.060;-0.086;2023-01-26T05:33:12;101336.40;;;1.81;67.53
57885;BME280;43703;51.060;-0.086;2023-01-26T05:35:37;101334.60;;;1.66;68.07
57885;BME280;43703;51.060;-0.086;2023-01-26T05:38:02;101335.64;;;1.82;67.70
57885;BME280;43703;51.060;-0.086;2023-01-26T05:40:27;101340.89;;;1.02;70.23
57885;BME280;43703;51.060;-0.086;2023-01-26T05:42:53;101327.03;;;1.74;68.75
57885;BME280;43703;51.060;-0.086;2023-01-26T05:45:18;101327.09;;;1.61;68.86
57885;BME280;43703;51.060;-0.086;2023-01-26T05:47:43;101331.08;;;2.25;66.88
57885;BME280;43703;51.060;-0.086;2023-01-26T05:50:09;101336.76;;;1.74;67.62
57885;BME280;43703;51.060;-0.086;2023-01-26T05:52:34;101341.80;;;1.42;68.13
57885;BME280;43703;51.060;-0.086;2023-01-26T05:54:59;101335.89;;;1.63;67.86
57885;BME280;43703;51.060;-0.086;2023-01-26T05:57:24;101335.15;;;1.46;68.81
57885;BME280;43703;51.060;-0.086;2023-01-26T05:59:49;101337.09;;;2.06;69.20
57885;BME280;43703;51.060;-0.086;2023-01-26T06:02:14;101338.65;;;1.88;69.93
57885;BME280;43703;51.060;-0.086;2023-01-26T06:04:40;101343.32;;;1.90;69.91
57885;BME280;43703;51.060;-0.086;2023-01-26T06:07:05;101340.85;;;2.08;70.29
57885;BME280;43703;51.060;-0.086;2023-01-26T06:09:30;101346.46;;;2.04;70.42
57885;BME280;43703;51.060;-0.086;2023-01-26T06:11:56;101343.35;;;1.75;70.96
57885;BME280;43703;51.060;-0.086;2023-01-26T06:14:21;101347.81;;;2.47;69.50
57885;BME280;43703;51.060;-0.086;2023-01-26T06:16:47;101345.56;;;3.50;68.46
57885;BME280;43703;51.060;-0.086;2023-01-26T06:19:12;101354.47;;;3.13;68.70
57885;BME280;43703;51.060;-0.086;2023-01-26T06:21:36;101357.90;;;3.03;68.85
57885;BME280;43703;51.060;-0.086;2023-01-26T06:24:02;101360.60;;;2.62;68.55
57885;BME280;43703;51.060;-0.086;2023-01-26T06:26:26;101362.34;;;3.12;68.12
57885;BME280;43703;51.060;-0.086;2023-01-26T06:28:52;101360.03;;;2.98;67.47
57885;BME280;43703;51.060;-0.086;2023-01-26T06:31:17;101352.02;;;3.15;68.12
57885;BME280;43703;51.060;-0.086;2023-01-26T06:33:42;101358.70;;;2.50;68.59
57885;BME280;43703;51.060;-0.086;2023-01-26T06:36:09;101355.54;;;2.94;68.89
57885;BME280;43703;51.060;-0.086;2023-01-26T06:38:32;101359.91;;;2.88;67.89
57885;BME280;43703;51.060;-0.086;2023-01-26T06:40:59;101355.31;;;3.52;67.25
57885;BME280;43703;51.060;-0.086;2023-01-26T06:43:23;101358.01;;;2.62;67.48
57885;BME280;43703;51.060;-0.086;2023-01-26T06:45:48;101363.09;;;2.87;67.67
57885;BME280;43703;51.060;-0.086;2023-01-26T06:48:13;101369.30;;;3.06;67.61
57885;BME280;43703;51.060;-0.086;2023-01-26T06:50:38;101367.99;;;3.25;66.99
57885;BME280;43703;51.060;-0.086;2023-01-26T06:55:33;101380.91;;;3.26;66.85
57885;BME280;43703;51.060;-0.086;2023-01-26T06:57:54;101382.73;;;2.93;67.57
57885;BME280;43703;51.060;-0.086;2023-01-26T07:00:21;101387.69;;;3.32;67.70
57885;BME280;43703;51.060;-0.086;2023-01-26T07:02:45;101395.00;;;4.00;65.87
57885;BME280;43703;51.060;-0.086;2023-01-26T07:05:10;101394.95;;;3.35;66.78
57885;BME280;43703;51.060;-0.086;2023-01-26T07:07:34;101405.53;;;2.91;67.64
57885;BME280;43703;51.060;-0.086;2023-01-26T07:10:00;101409.03;;;2.74;68.11
57885;BME280;43703;51.060;-0.086;2023-01-26T07:12:25;101413.00;;;3.05;67.49
57885;BME280;43703;51.060;-0.086;2023-01-26T07:14:50;101405.94;;;3.54;66.33
57885;BME280;43703;51.060;-0.086;2023-01-26T07:17:16;101409.42;;;3.35;67.52
57885;BME280;43703;51.060;-0.086;2023-01-26T07:19:41;101413.48;;;3.83;67.10
57885;BME280;43703;51.060;-0.086;2023-01-26T07:22:06;101426.15;;;3.29;66.76
57885;BME280;43703;51.060;-0.086;2023-01-26T07:24:32;101429.11;;;4.02;66.02
57885;BME280;43703;51.060;-0.086;2023-01-26T07:26:57;101422.41;;;3.68;67.53
57885;BME280;43703;51.060;-0.086;2023-01-26T07:29:22;101427.89;;;2.67;69.16
57885;BME280;43703;51.060;-0.086;2023-01-26T07:31:47;101429.94;;;3.89;67.55
57885;BME280;43703;51.060;-0.086;2023-01-26T07:34:13;101427.86;;;4.17;66.64
57885;BME280;43703;51.060;-0.086;2023-01-26T07:36:38;101428.70;;;4.29;66.55
57885;BME280;43703;51.060;-0.086;2023-01-26T07:39:03;101429.41;;;3.79;67.29
57885;BME280;43703;51.060;-0.086;2023-01-26T07:41:28;101437.07;;;4.03;66.56
57885;BME280;43703;51.060;-0.086;2023-01-26T07:43:54;101440.23;;;4.11;66.81
57885;BME280;43703;51.060;-0.086;2023-01-26T07:46:20;101444.74;;;3.24;68.10
57885;BME280;43703;51.060;-0.086;2023-01-26T07:48:45;101445.09;;;4.07;66.61
57885;BME280;43703;51.060;-0.086;2023-01-26T07:51:11;101443.61;;;4.17;66.52
57885;BME280;43703;51.060;-0.086;2023-01-26T07:53:36;101445.31;;;4.07;67.89
57885;BME280;43703;51.060;-0.086;2023-01-26T07:56:06;101442.88;;;3.32;67.47
57885;BME280;43703;51.060;-0.086;2023-01-26T07:58:26;101444.18;;;3.57;67.27
57885;BME280;43703;51.060;-0.086;2023-01-26T08:00:51;101442.25;;;3.15;67.57
57885;BME280;43703;51.060;-0.086;2023-01-26T08:03:16;101438.09;;;3.47;68.12
57885;BME280;43703;51.060;-0.086;2023-01-26T08:05:41;101433.30;;;3.77;68.07
57885;BME280;43703;51.060;-0.086;2023-01-26T08:08:07;101426.90;;;3.36;67.96
57885;BME280;43703;51.060;-0.086;2023-01-26T08:10:32;101427.06;;;3.41;67.64
57885;BME280;43703;51.060;-0.086;2023-01-26T08:12:59;101436.74;;;3.06;69.32
57885;BME280;43703;51.060;-0.086;2023-01-26T08:15:27;101455.88;;;3.76;67.78
57885;BME280;43703;51.060;-0.086;2023-01-26T08:17:48;101458.28;;;3.38;68.15
57885;BME280;43703;51.060;-0.086;2023-01-26T08:20:13;101448.25;;;4.32;67.42
57885;BME280;43703;51.060;-0.086;2023-01-26T08:22:38;101451.09;;;3.88;68.23
57885;BME280;43703;51.060;-0.086;2023-01-26T08:25:05;101447.81;;;3.93;67.73
57885;BME280;43703;51.060;-0.086;2023-01-26T08:27:29;101449.67;;;4.08;67.36
57885;BME280;43703;51.060;-0.086;2023-01-26T08:29:54;101456.88;;;3.40;66.35
57885;BME280;43703;51.060;-0.086;2023-01-26T08:32:19;101467.00;;;3.80;67.38
57885;BME280;43703;51.060;-0.086;2023-01-26T08:34:44;101462.83;;;4.32;66.85
57885;BME280;43703;51.060;-0.086;2023-01-26T08:37:10;101459.13;;;4.29;67.33
57885;BME280;43703;51.060;-0.086;2023-01-26T08:39:36;101462.47;;;3.88;67.06
57885;BME280;43703;51.060;-0.086;2023-01-26T08:42:02;101466.54;;;4.20;66.64
57885;BME280;43703;51.060;-0.086;2023-01-26T08:44:27;101467.61;;;3.94;66.95
57885;BME280;43703;51.060;-0.086;2023-01-26T08:46:52;101470.71;;;3.31;66.89
57885;BME280;43703;51.060;-0.086;2023-01-26T08:49:17;101473.73;;;3.81;66.52
57885;BME280;43703;51.060;-0.086;2023-01-26T08:51:44;101471.08;;;3.81;66.58
57885;BME280;43703;51.060;-0.086;2023-01-26T08:54:09;101469.64;;;3.85;67.19
57885;BME280;43703;51.060;-0.086;2023-01-26T08:56:35;101473.56;;;3.95;66.23
57885;BME280;43703;51.060;-0.086;2023-01-26T08:59:00;101473.68;;;3.55;66.15
57885;BME280;43703;51.060;-0.086;2023-01-26T09:01:25;101470.93;;;4.04;66.79
57885;BME280;43703;51.060;-0.086;2023-01-26T09:03:51;101476.16;;;4.16;66.09
57885;BME280;43703;51.060;-0.086;2023-01-26T09:06:15;101477.19;;;3.52;66.85
57885;BME280;43703;51.060;-0.086;2023-01-26T09:08:40;101475.42;;;4.00;66.67
57885;BME280;43703;51.060;-0.086;2023-01-26T09:11:06;101474.40;;;4.54;66.56
57885;BME280;43703;51.060;-0.086;2023-01-26T09:13:31;101472.06;;;3.78;67.24
57885;BME280;43703;51.060;-0.086;2023-01-26T09:15:55;101473.15;;;3.93;67.14
57885;BME280;43703;51.060;-0.086;2023-01-26T09:18:21;101473.80;;;3.63;66.87
57885;BME280;43703;51.060;-0.086;2023-01-26T09:20:46;101477.49;;;4.07;67.16
57885;BME280;43703;51.060;-0.086;2023-01-26T09:23:11;101475.97;;;4.18;66.22
57885;BME280;43703;51.060;-0.086;2023-01-26T09:25:38;101480.40;;;4.16;65.78
57885;BME280;43703;51.060;-0.086;2023-01-26T09:28:03;101482.62;;;4.07;66.29
57885;BME280;43703;51.060;-0.086;2023-01-26T09:30:28;101481.20;;;4.20;66.90
57885;BME280;43703;51.060;-0.086;2023-01-26T09:32:55;101481.11;;;3.67;66.21
57885;BME280;43703;51.060;-0.086;2023-01-26T09:35:17;101478.20;;;4.77;66.43
57885;BME280;43703;51.060;-0.086;2023-01-26T09:37:43;101482.75;;;4.23;65.80
57885;BME280;43703;51.060;-0.086;2023-01-26T09:40:18;101483.43;;;4.79;65.70
57885;BME280;43703;51.060;-0.086;2023-01-26T09:42:45;101482.42;;;4.88;65.98
57885;BME280;43703;51.060;-0.086;2023-01-26T09:45:11;101481.90;;;4.43;65.85
57885;BME280;43703;51.060;-0.086;2023-01-26T09:47:29;101486.42;;;5.06;65.93
57885;BME280;43703;51.060;-0.086;2023-01-26T09:49:52;101491.11;;;4.80;65.74
57885;BME280;43703;51.060;-0.086;2023-01-26T09:52:21;101492.03;;;5.39;65.62
57885;BME280;43703;51.060;-0.086;2023-01-26T09:54:46;101486.39;;;4.86;65.07
57885;BME280;43703;51.060;-0.086;2023-01-26T09:57:11;101480.77;;;4.08;65.79
57885;BME280;43703;51.060;-0.086;2023-01-26T09:59:34;101486.44;;;4.69;66.71
57885;BME280;43703;51.060;-0.086;2023-01-26T10:02:04;101480.32;;;5.31;66.58
57885;BME280;43703;51.060;-0.086;2023-01-26T10:04:29;101482.00;;;5.73;64.85
57885;BME280;43703;51.060;-0.086;2023-01-26T10:06:46;101488.64;;;4.52;65.16
57885;BME280;43703;51.060;-0.086;2023-01-26T10:09:21;101493.28;;;5.12;65.60
57885;BME280;43703;51.060;-0.086;2023-01-26T10:11:51;101491.63;;;5.44;64.45
57885;BME280;43703;51.060;-0.086;2023-01-26T10:14:10;101489.00;;;5.65;65.17
57885;BME280;43703;51.060;-0.086;2023-01-26T10:16:33;101495.12;;;4.00;65.16
57885;BME280;43703;51.060;-0.086;2023-01-26T10:18:56;101498.36;;;5.07;65.02
57885;BME280;43703;51.060;-0.086;2023-01-26T10:21:18;101499.33;;;5.48;64.91
57885;BME280;43703;51.060;-0.086;2023-01-26T10:23:47;101498.00;;;5.42;65.64
57885;BME280;43703;51.060;-0.086;2023-01-26T10:26:15;101501.39;;;5.51;65.54
57885;BME280;43703;51.060;-0.086;2023-01-26T10:28:34;101506.31;;;5.29;66.26
57885;BME280;43703;51.060;-0.086;2023-01-26T10:31:05;101503.18;;;5.17;65.12
57885;BME280;43703;51.060;-0.086;2023-01-26T10:33:29;101508.79;;;5.78;65.32
57885;BME280;43703;51.060;-0.086;2023-01-26T10:35:59;101510.38;;;6.32;65.42
57885;BME280;43703;51.060;-0.086;2023-01-26T10:40:43;101519.93;;;5.93;64.34
57885;BME280;43703;51.060;-0.086;2023-01-26T10:43:17;101517.21;;;6.48;64.26
57885;BME280;43703;51.060;-0.086;2023-01-26T10:45:31;101522.75;;;5.65;62.33
57885;BME280;43703;51.060;-0.086;2023-01-26T10:50:23;101513.15;;;5.59;64.81
57885;BME280;43703;51.060;-0.086;2023-01-26T10:55:18;101516.37;;;5.98;63.86
57885;BME280;43703;51.060;-0.086;2023-01-26T10:57:48;101514.70;;;6.12;63.67
57885;BME280;43703;51.060;-0.086;2023-01-26T11:00:05;101515.35;;;6.08;62.67
57885;BME280;43703;51.060;-0.086;2023-01-26T11:02:28;101519.70;;;6.44;62.80
57885;BME280;43703;51.060;-0.086;2023-01-26T11:07:25;101505.40;;;5.92;63.80
57885;BME280;43703;51.060;-0.086;2023-01-26T11:09:49;101506.61;;;5.93;63.48
57885;BME280;43703;51.060;-0.086;2023-01-26T11:12:18;101503.40;;;6.51;64.62
57885;BME280;43703;51.060;-0.086;2023-01-26T11:14:35;101504.98;;;6.46;62.54
57885;BME280;43703;51.060;-0.086;2023-01-26T11:17:12;101499.86;;;6.27;62.19
57885;BME280;43703;51.060;-0.086;2023-01-26T11:19:42;101498.34;;;6.22;61.38
57885;BME280;43703;51.060;-0.086;2023-01-26T11:21:58;101496.42;;;6.52;63.02
57885;BME280;43703;51.060;-0.086;2023-01-26T11:24:23;101495.48;;;5.81;64.18
57885;BME280;43703;51.060;-0.086;2023-01-26T11:43:54;101483.44;;;6.82;62.65
57885;BME280;43703;51.060;-0.086;2023-01-26T11:51:02;101477.84;;;6.53;62.88
57885;BME280;43703;51.060;-0.086;2023-01-26T11:53:34;101479.03;;;7.18;63.69
57885;BME280;43703;51.060;-0.086;2023-01-26T12:00:41;101486.58;;;6.28;62.37
57885;BME280;43703;51.060;-0.086;2023-01-26T12:03:04;101481.27;;;6.12;63.56
57885;BME280;43703;51.060;-0.086;2023-01-26T12:05:28;101480.40;;;7.20;63.81
57885;BME280;43703;51.060;-0.086;2023-01-26T12:07:56;101485.96;;;6.75;62.49
57885;BME280;43703;51.060;-0.086;2023-01-26T12:10:21;101479.27;;;6.75;63.68
57885;BME280;43703;51.060;-0.086;2023-01-26T12:12:47;101477.09;;;6.16;64.68
57885;BME280;43703;51.060;-0.086;2023-01-26T12:15:16;101474.08;;;6.16;64.79
57885;BME280;43703;51.060;-0.086;2023-01-26T12:17:43;101476.83;;;6.12;63.29
57885;BME280;43703;51.060;-0.086;2023-01-26T12:22:29;101459.14;;;6.16;64.11
57885;BME280;43703;51.060;-0.086;2023-01-26T12:24:53;101459.33;;;6.15;64.93
57885;BME280;43703;51.060;-0.086;2023-01-26T12:27:20;101457.49;;;7.64;63.74
57885;BME280;43703;51.060;-0.086;2023-01-26T12:32:09;101463.90;;;7.53;60.51
57885;BME280;43703;51.060;-0.086;2023-01-26T12:34:33;101468.57;;;6.74;61.84
57885;BME280;43703;51.060;-0.086;2023-01-26T12:39:27;101461.98;;;6.38;62.44
57885;BME280;43703;51.060;-0.086;2023-01-26T12:44:27;101466.64;;;6.19;63.33
57885;BME280;43703;51.060;-0.086;2023-01-26T12:46:40;101468.14;;;6.25;63.45
57885;BME280;43703;51.060;-0.086;2023-01-26T12:49:09;101464.12;;;6.81;63.59
57885;BME280;43703;51.060;-0.086;2023-01-26T12:51:31;101459.03;;;7.45;62.98
57885;BME280;43703;51.060;-0.086;2023-01-26T12:53:58;101459.60;;;7.27;61.75
57885;BME280;43703;51.060;-0.086;2023-01-26T12:56:22;101462.32;;;6.93;62.47
57885;BME280;43703;51.060;-0.086;2023-01-26T12:58:51;101463.25;;;6.14;62.09
57885;BME280;43703;51.060;-0.086;2023-01-26T13:01:11;101463.59;;;6.75;62.37
57885;BME280;43703;51.060;-0.086;2023-01-26T13:03:35;101458.52;;;7.38;62.21
57885;BME280;43703;51.060;-0.086;2023-01-26T13:06:01;101460.28;;;8.12;59.91
57885;BME280;43703;51.060;-0.086;2023-01-26T13:10:50;101467.01;;;6.69;61.35
57885;BME280;43703;51.060;-0.086;2023-01-26T13:15:40;101463.40;;;6.77;62.20
57885;BME280;43703;51.060;-0.086;2023-01-26T13:18:16;101458.52;;;6.90;61.66
57885;BME280;43703;51.060;-0.086;2023-01-26T13:23:01;101448.36;;;7.35;62.60
57885;BME280;43703;51.060;-0.086;2023-01-26T13:27:55;101443.74;;;8.33;59.68
57885;BME280;43703;51.060;-0.086;2023-01-26T13:35:09;101440.71;;;8.09;59.43
57885;BME280;43703;51.060;-0.086;2023-01-26T13:37:33;101442.03;;;8.99;57.46
57885;BME280;43703;51.060;-0.086;2023-01-26T13:39:59;101441.46;;;7.44;58.13
57885;BME280;43703;51.060;-0.086;2023-01-26T13:42:30;101441.47;;;7.83;58.45
57885;BME280;43703;51.060;-0.086;2023-01-26T13:44:50;101447.33;;;6.55;58.86